sensor_id;sensor_type;location;lat;lon;timestamp;P1;durP1;ratioP1;P2;durP2;ratioP2
57325;SDS011;43161;50.950;18.224;2024-03-08T00:00:40;47.90;;;19.50;;
57325;SDS011;43161;50.950;18.224;2024-03-08T00:03:08;52.00;;;20.70;;
57325;SDS011;43161;50.950;18.224;2024-03-08T00:05:35;48.80;;;19.90;;
57325;SDS011;43161;50.950;18.224;2024-03-08T00:08:04;48.40;;;19.10;;
57325;SDS011;43161;50.950;18.224;2024-03-08T00:10:31;50.40;;;20.20;;
57325;SDS011;43161;50.950;18.224;2024-03-08T00:12:57;53.90;;;20.70;;
57325;SDS011;43161;50.950;18.224;2024-03-08T00:15:23;54.60;;;20.50;;
57325;SDS011;43161;50.950;18.224;2024-03-08T00:17:48;46.70;;;20.00;;
57325;SDS011;43161;50.950;18.224;2024-03-08T00:20:14;55.60;;;23.70;;
57325;SDS011;43161;50.950;18.224;2024-03-08T00:22:43;59.00;;;25.10;;
57325;SDS011;43161;50.950;18.224;2024-03-08T00:25:09;61.70;;;26.20;;
57325;SDS011;43161;50.950;18.224;2024-03-08T00:27:34;58.20;;;27.50;;
57325;SDS011;43161;50.950;18.224;2024-03-08T00:30:00;56.80;;;26.30;;
57325;SDS011;43161;50.950;18.224;2024-03-08T00:32:26;59.20;;;27.00;;
57325;SDS011;43161;50.950;18.224;2024-03-08T00:34:53;59.50;;;27.20;;
57325;SDS011;43161;50.950;18.224;2024-03-08T00:37:20;61.30;;;25.30;;
57325;SDS011;43161;50.950;18.224;2024-03-08T00:39:47;58.10;;;25.00;;
57325;SDS011;43161;50.950;18.224;2024-03-08T00:42:15;62.20;;;28.20;;
57325;SDS011;43161;50.950;18.224;2024-03-08T00:44:44;58.40;;;26.20;;
57325;SDS011;43161;50.950;18.224;2024-03-08T00:47:10;60.20;;;26.90;;
57325;SDS011;43161;50.950;18.224;2024-03-08T00:49:36;63.30;;;28.80;;
57325;SDS011;43161;50.950;18.224;2024-03-08T00:52:06;75.80;;;38.40;;
57325;SDS011;43161;50.950;18.224;2024-03-08T00:54:32;72.30;;;33.40;;
57325;SDS011;43161;50.950;18.224;2024-03-08T00:56:58;60.90;;;27.60;;
57325;SDS011;43161;50.950;18.224;2024-03-08T00:59:24;57.20;;;24.10;;
57325;SDS011;43161;50.950;18.224;2024-03-08T01:01:49;54.00;;;22.70;;
57325;SDS011;43161;50.950;18.224;2024-03-08T01:04:15;62.00;;;24.70;;
57325;SDS011;43161;50.950;18.224;2024-03-08T01:06:40;56.70;;;25.10;;
57325;SDS011;43161;50.950;18.224;2024-03-08T01:09:07;61.60;;;26.00;;
57325;SDS011;43161;50.950;18.224;2024-03-08T01:11:34;66.50;;;27.90;;
57325;SDS011;43161;50.950;18.224;2024-03-08T01:14:00;65.10;;;26.90;;
57325;SDS011;43161;50.950;18.224;2024-03-08T01:16:26;72.10;;;36.00;;
57325;SDS011;43161;50.950;18.224;2024-03-08T01:18:52;63.10;;;26.80;;
57325;SDS011;43161;50.950;18.224;2024-03-08T01:21:17;68.60;;;28.10;;
57325;SDS011;43161;50.950;18.224;2024-03-08T01:23:43;61.90;;;26.90;;
57325;SDS011;43161;50.950;18.224;2024-03-08T01:26:08;64.80;;;27.10;;
57325;SDS011;43161;50.950;18.224;2024-03-08T01:28:34;70.10;;;27.00;;
57325;SDS011;43161;50.950;18.224;2024-03-08T01:31:00;66.90;;;28.60;;
57325;SDS011;43161;50.950;18.224;2024-03-08T01:33:26;66.70;;;28.90;;
57325;SDS011;43161;50.950;18.224;2024-03-08T01:35:52;74.10;;;31.20;;
57325;SDS011;43161;50.950;18.224;2024-03-08T01:38:21;68.40;;;30.70;;
57325;SDS011;43161;50.950;18.224;2024-03-08T01:40:47;68.50;;;30.00;;
57325;SDS011;43161;50.950;18.224;2024-03-08T01:43:24;70.30;;;31.20;;
57325;SDS011;43161;50.950;18.224;2024-03-08T01:45:52;66.60;;;28.60;;
57325;SDS011;43161;50.950;18.224;2024-03-08T01:48:18;67.20;;;28.20;;
57325;SDS011;43161;50.950;18.224;2024-03-08T01:50:44;65.20;;;28.90;;
57325;SDS011;43161;50.950;18.224;2024-03-08T01:53:10;70.30;;;29.70;;
57325;SDS011;43161;50.950;18.224;2024-03-08T01:55:37;69.10;;;28.30;;
57325;SDS011;43161;50.950;18.224;2024-03-08T01:58:04;79.90;;;31.10;;
57325;SDS011;43161;50.950;18.224;2024-03-08T02:00:31;71.50;;;34.40;;
57325;SDS011;43161;50.950;18.224;2024-03-08T02:02:58;71.10;;;31.90;;
57325;SDS011;43161;50.950;18.224;2024-03-08T02:05:23;71.10;;;30.30;;
57325;SDS011;43161;50.950;18.224;2024-03-08T02:07:49;68.50;;;29.30;;
57325;SDS011;43161;50.950;18.224;2024-03-08T02:10:15;66.70;;;27.60;;
57325;SDS011;43161;50.950;18.224;2024-03-08T02:12:40;70.90;;;28.30;;
57325;SDS011;43161;50.950;18.224;2024-03-08T02:15:07;65.80;;;25.50;;
57325;SDS011;43161;50.950;18.224;2024-03-08T02:17:32;60.90;;;24.10;;
57325;SDS011;43161;50.950;18.224;2024-03-08T02:20:01;63.50;;;23.50;;
57325;SDS011;43161;50.950;18.224;2024-03-08T02:22:28;62.50;;;29.20;;
57325;SDS011;43161;50.950;18.224;2024-03-08T02:24:55;72.70;;;30.50;;
57325;SDS011;43161;50.950;18.224;2024-03-08T02:27:24;68.00;;;27.90;;
57325;SDS011;43161;50.950;18.224;2024-03-08T02:29:56;67.30;;;29.10;;
57325;SDS011;43161;50.950;18.224;2024-03-08T02:32:22;74.70;;;34.60;;
57325;SDS011;43161;50.950;18.224;2024-03-08T02:34:48;72.00;;;30.80;;
57325;SDS011;43161;50.950;18.224;2024-03-08T02:37:15;71.00;;;29.00;;
57325;SDS011;43161;50.950;18.224;2024-03-08T02:39:41;68.50;;;29.40;;
57325;SDS011;43161;50.950;18.224;2024-03-08T02:42:06;67.30;;;25.70;;
57325;SDS011;43161;50.950;18.224;2024-03-08T02:44:32;66.50;;;25.50;;
57325;SDS011;43161;50.950;18.224;2024-03-08T02:46:58;64.40;;;24.90;;
57325;SDS011;43161;50.950;18.224;2024-03-08T02:49:25;68.40;;;28.50;;
57325;SDS011;43161;50.950;18.224;2024-03-08T02:51:52;66.40;;;29.00;;
57325;SDS011;43161;50.950;18.224;2024-03-08T02:54:18;68.90;;;28.40;;
57325;SDS011;43161;50.950;18.224;2024-03-08T02:56:46;71.90;;;31.10;;
57325;SDS011;43161;50.950;18.224;2024-03-08T02:59:12;86.60;;;40.10;;
57325;SDS011;43161;50.950;18.224;2024-03-08T03:01:38;63.60;;;27.70;;
57325;SDS011;43161;50.950;18.224;2024-03-08T03:04:04;65.60;;;28.60;;
57325;SDS011;43161;50.950;18.224;2024-03-08T03:06:30;68.40;;;28.50;;
57325;SDS011;43161;50.950;18.224;2024-03-08T03:08:56;65.30;;;28.30;;
57325;SDS011;43161;50.950;18.224;2024-03-08T03:11:23;61.10;;;24.00;;
57325;SDS011;43161;50.950;18.224;2024-03-08T03:13:49;56.50;;;22.00;;
57325;SDS011;43161;50.950;18.224;2024-03-08T03:16:18;58.40;;;22.60;;
57325;SDS011;43161;50.950;18.224;2024-03-08T03:18:48;58.30;;;22.00;;
57325;SDS011;43161;50.950;18.224;2024-03-08T03:21:14;54.90;;;21.20;;
57325;SDS011;43161;50.950;18.224;2024-03-08T03:23:40;55.80;;;22.00;;
57325;SDS011;43161;50.950;18.224;2024-03-08T03:26:08;57.50;;;21.70;;
57325;SDS011;43161;50.950;18.224;2024-03-08T03:28:37;53.90;;;22.00;;
57325;SDS011;43161;50.950;18.224;2024-03-08T03:31:07;58.90;;;20.80;;
57325;SDS011;43161;50.950;18.224;2024-03-08T03:33:33;62.10;;;21.60;;
57325;SDS011;43161;50.950;18.224;2024-03-08T03:36:02;55.10;;;23.00;;
57325;SDS011;43161;50.950;18.224;2024-03-08T03:38:30;67.10;;;27.90;;
57325;SDS011;43161;50.950;18.224;2024-03-08T03:40:56;65.40;;;28.80;;
57325;SDS011;43161;50.950;18.224;2024-03-08T03:43:25;63.80;;;25.30;;
57325;SDS011;43161;50.950;18.224;2024-03-08T03:45:51;68.10;;;28.60;;
57325;SDS011;43161;50.950;18.224;2024-03-08T03:48:17;66.40;;;28.20;;
57325;SDS011;43161;50.950;18.224;2024-03-08T03:50:42;60.90;;;23.90;;
57325;SDS011;43161;50.950;18.224;2024-03-08T03:53:09;66.20;;;28.20;;
57325;SDS011;43161;50.950;18.224;2024-03-08T03:55:35;69.30;;;29.20;;
57325;SDS011;43161;50.950;18.224;2024-03-08T03:58:02;76.70;;;38.10;;
57325;SDS011;43161;50.950;18.224;2024-03-08T04:00:28;68.90;;;31.30;;
57325;SDS011;43161;50.950;18.224;2024-03-08T04:02:53;67.30;;;27.70;;
57325;SDS011;43161;50.950;18.224;2024-03-08T04:05:21;66.50;;;27.60;;
57325;SDS011;43161;50.950;18.224;2024-03-08T04:07:47;69.60;;;28.80;;
57325;SDS011;43161;50.950;18.224;2024-03-08T04:10:12;68.00;;;31.10;;
57325;SDS011;43161;50.950;18.224;2024-03-08T04:12:38;68.00;;;26.70;;
57325;SDS011;43161;50.950;18.224;2024-03-08T04:15:04;67.10;;;27.00;;
57325;SDS011;43161;50.950;18.224;2024-03-08T04:17:32;65.00;;;28.20;;
57325;SDS011;43161;50.950;18.224;2024-03-08T04:20:02;73.50;;;30.00;;
57325;SDS011;43161;50.950;18.224;2024-03-08T04:22:34;87.80;;;36.60;;
57325;SDS011;43161;50.950;18.224;2024-03-08T04:25:03;68.10;;;30.60;;
57325;SDS011;43161;50.950;18.224;2024-03-08T04:27:29;80.10;;;37.30;;
57325;SDS011;43161;50.950;18.224;2024-03-08T04:29:54;75.00;;;30.20;;
57325;SDS011;43161;50.950;18.224;2024-03-08T04:32:20;75.30;;;36.00;;
57325;SDS011;43161;50.950;18.224;2024-03-08T04:34:45;78.30;;;34.50;;
57325;SDS011;43161;50.950;18.224;2024-03-08T04:37:11;80.70;;;32.60;;
57325;SDS011;43161;50.950;18.224;2024-03-08T04:39:38;73.00;;;28.70;;
57325;SDS011;43161;50.950;18.224;2024-03-08T04:42:04;60.30;;;23.70;;
57325;SDS011;43161;50.950;18.224;2024-03-08T04:44:35;59.40;;;23.80;;
57325;SDS011;43161;50.950;18.224;2024-03-08T04:47:03;63.00;;;25.10;;
57325;SDS011;43161;50.950;18.224;2024-03-08T04:49:31;66.30;;;27.30;;
57325;SDS011;43161;50.950;18.224;2024-03-08T04:52:01;69.90;;;28.60;;
57325;SDS011;43161;50.950;18.224;2024-03-08T04:54:28;65.00;;;25.00;;
57325;SDS011;43161;50.950;18.224;2024-03-08T04:56:55;61.20;;;24.20;;
57325;SDS011;43161;50.950;18.224;2024-03-08T04:59:21;61.00;;;22.60;;
57325;SDS011;43161;50.950;18.224;2024-03-08T05:01:46;59.00;;;24.80;;
57325;SDS011;43161;50.950;18.224;2024-03-08T05:04:13;63.20;;;25.30;;
57325;SDS011;43161;50.950;18.224;2024-03-08T05:06:39;63.00;;;24.80;;
57325;SDS011;43161;50.950;18.224;2024-03-08T05:09:04;62.60;;;24.30;;
57325;SDS011;43161;50.950;18.224;2024-03-08T05:11:48;67.20;;;25.90;;
57325;SDS011;43161;50.950;18.224;2024-03-08T05:14:15;64.20;;;25.00;;
57325;SDS011;43161;50.950;18.224;2024-03-08T05:16:45;62.00;;;24.80;;
57325;SDS011;43161;50.950;18.224;2024-03-08T05:19:14;72.40;;;29.40;;
57325;SDS011;43161;50.950;18.224;2024-03-08T05:21:44;66.00;;;27.10;;
57325;SDS011;43161;50.950;18.224;2024-03-08T05:24:10;68.30;;;27.20;;
57325;SDS011;43161;50.950;18.224;2024-03-08T05:26:36;69.50;;;28.70;;
57325;SDS011;43161;50.950;18.224;2024-03-08T05:29:03;74.20;;;32.50;;
57325;SDS011;43161;50.950;18.224;2024-03-08T05:31:29;80.40;;;36.40;;
57325;SDS011;43161;50.950;18.224;2024-03-08T05:33:58;76.20;;;32.50;;
57325;SDS011;43161;50.950;18.224;2024-03-08T05:36:24;70.00;;;27.80;;
57325;SDS011;43161;50.950;18.224;2024-03-08T05:38:49;63.60;;;26.50;;
57325;SDS011;43161;50.950;18.224;2024-03-08T05:41:16;66.40;;;25.80;;
57325;SDS011;43161;50.950;18.224;2024-03-08T05:43:43;77.10;;;37.40;;
57325;SDS011;43161;50.950;18.224;2024-03-08T05:46:09;74.40;;;31.20;;
57325;SDS011;43161;50.950;18.224;2024-03-08T05:48:37;76.60;;;30.80;;
57325;SDS011;43161;50.950;18.224;2024-03-08T05:51:03;76.00;;;31.60;;
57325;SDS011;43161;50.950;18.224;2024-03-08T05:53:28;70.30;;;30.60;;
57325;SDS011;43161;50.950;18.224;2024-03-08T05:55:57;75.10;;;31.40;;
57325;SDS011;43161;50.950;18.224;2024-03-08T05:58:24;73.30;;;32.70;;
57325;SDS011;43161;50.950;18.224;2024-03-08T06:00:50;73.90;;;32.30;;
57325;SDS011;43161;50.950;18.224;2024-03-08T06:03:15;75.50;;;32.10;;
57325;SDS011;43161;50.950;18.224;2024-03-08T06:05:41;77.70;;;33.00;;
57325;SDS011;43161;50.950;18.224;2024-03-08T06:08:07;77.60;;;34.70;;
57325;SDS011;43161;50.950;18.224;2024-03-08T06:10:33;72.00;;;28.90;;
57325;SDS011;43161;50.950;18.224;2024-03-08T06:12:59;73.80;;;30.20;;
57325;SDS011;43161;50.950;18.224;2024-03-08T06:15:25;74.10;;;30.80;;
57325;SDS011;43161;50.950;18.224;2024-03-08T06:17:51;68.70;;;29.10;;
57325;SDS011;43161;50.950;18.224;2024-03-08T06:20:18;71.20;;;29.00;;
57325;SDS011;43161;50.950;18.224;2024-03-08T06:22:44;77.70;;;36.60;;
57325;SDS011;43161;50.950;18.224;2024-03-08T06:25:10;71.80;;;30.80;;
57325;SDS011;43161;50.950;18.224;2024-03-08T06:27:40;73.60;;;32.20;;
57325;SDS011;43161;50.950;18.224;2024-03-08T06:30:08;70.70;;;30.40;;
57325;SDS011;43161;50.950;18.224;2024-03-08T06:32:35;85.80;;;37.60;;
57325;SDS011;43161;50.950;18.224;2024-03-08T06:35:02;69.60;;;30.20;;
57325;SDS011;43161;50.950;18.224;2024-03-08T06:37:32;70.10;;;30.70;;
57325;SDS011;43161;50.950;18.224;2024-03-08T06:40:00;69.90;;;31.00;;
57325;SDS011;43161;50.950;18.224;2024-03-08T06:42:27;65.30;;;29.30;;
57325;SDS011;43161;50.950;18.224;2024-03-08T06:44:53;64.60;;;27.60;;
57325;SDS011;43161;50.950;18.224;2024-03-08T06:47:21;68.80;;;30.20;;
57325;SDS011;43161;50.950;18.224;2024-03-08T06:49:51;70.70;;;29.60;;
57325;SDS011;43161;50.950;18.224;2024-03-08T06:52:17;65.20;;;28.10;;
57325;SDS011;43161;50.950;18.224;2024-03-08T06:54:43;59.00;;;28.00;;
57325;SDS011;43161;50.950;18.224;2024-03-08T06:57:08;62.40;;;28.50;;
57325;SDS011;43161;50.950;18.224;2024-03-08T06:59:35;62.40;;;26.90;;
57325;SDS011;43161;50.950;18.224;2024-03-08T07:02:02;58.30;;;28.90;;
57325;SDS011;43161;50.950;18.224;2024-03-08T07:04:27;60.40;;;29.60;;
57325;SDS011;43161;50.950;18.224;2024-03-08T07:06:55;61.10;;;27.90;;
57325;SDS011;43161;50.950;18.224;2024-03-08T07:09:22;55.30;;;28.40;;
57325;SDS011;43161;50.950;18.224;2024-03-08T07:11:50;56.50;;;27.60;;
57325;SDS011;43161;50.950;18.224;2024-03-08T07:14:23;53.40;;;25.60;;
57325;SDS011;43161;50.950;18.224;2024-03-08T07:16:49;43.60;;;21.60;;
57325;SDS011;43161;50.950;18.224;2024-03-08T07:19:15;53.10;;;24.80;;
57325;SDS011;43161;50.950;18.224;2024-03-08T07:21:45;49.40;;;25.60;;
57325;SDS011;43161;50.950;18.224;2024-03-08T07:24:12;49.60;;;23.10;;
57325;SDS011;43161;50.950;18.224;2024-03-08T07:26:42;47.70;;;23.30;;
57325;SDS011;43161;50.950;18.224;2024-03-08T07:29:08;48.00;;;22.20;;
57325;SDS011;43161;50.950;18.224;2024-03-08T07:31:34;47.40;;;24.70;;
57325;SDS011;43161;50.950;18.224;2024-03-08T07:34:15;45.30;;;20.50;;
57325;SDS011;43161;50.950;18.224;2024-03-08T07:36:42;48.10;;;23.20;;
57325;SDS011;43161;50.950;18.224;2024-03-08T07:39:07;45.20;;;21.60;;
57325;SDS011;43161;50.950;18.224;2024-03-08T07:41:40;45.60;;;19.60;;
57325;SDS011;43161;50.950;18.224;2024-03-08T07:44:06;41.60;;;19.90;;
57325;SDS011;43161;50.950;18.224;2024-03-08T07:46:32;51.30;;;23.60;;
57325;SDS011;43161;50.950;18.224;2024-03-08T07:48:59;44.20;;;21.60;;
57325;SDS011;43161;50.950;18.224;2024-03-08T07:51:25;43.90;;;23.10;;
57325;SDS011;43161;50.950;18.224;2024-03-08T07:53:51;42.80;;;19.90;;
57325;SDS011;43161;50.950;18.224;2024-03-08T07:56:16;41.40;;;20.50;;
57325;SDS011;43161;50.950;18.224;2024-03-08T07:58:46;40.50;;;21.00;;
57325;SDS011;43161;50.950;18.224;2024-03-08T08:01:16;41.30;;;21.00;;
57325;SDS011;43161;50.950;18.224;2024-03-08T08:03:42;43.30;;;23.40;;
57325;SDS011;43161;50.950;18.224;2024-03-08T08:06:07;40.00;;;22.00;;
57325;SDS011;43161;50.950;18.224;2024-03-08T08:08:34;42.60;;;23.30;;
57325;SDS011;43161;50.950;18.224;2024-03-08T08:10:59;41.80;;;21.40;;
57325;SDS011;43161;50.950;18.224;2024-03-08T08:13:26;45.80;;;23.40;;
57325;SDS011;43161;50.950;18.224;2024-03-08T08:15:53;42.20;;;24.10;;
57325;SDS011;43161;50.950;18.224;2024-03-08T08:18:18;40.40;;;22.00;;
57325;SDS011;43161;50.950;18.224;2024-03-08T08:20:46;41.40;;;23.30;;
57325;SDS011;43161;50.950;18.224;2024-03-08T08:23:12;42.50;;;22.20;;
57325;SDS011;43161;50.950;18.224;2024-03-08T08:25:39;50.10;;;27.30;;
57325;SDS011;43161;50.950;18.224;2024-03-08T08:28:04;41.20;;;22.20;;
57325;SDS011;43161;50.950;18.224;2024-03-08T08:30:30;39.70;;;20.30;;
57325;SDS011;43161;50.950;18.224;2024-03-08T08:32:58;44.10;;;22.10;;
57325;SDS011;43161;50.950;18.224;2024-03-08T08:35:26;41.20;;;22.60;;
57325;SDS011;43161;50.950;18.224;2024-03-08T08:37:51;42.10;;;20.70;;
57325;SDS011;43161;50.950;18.224;2024-03-08T08:40:17;46.50;;;24.10;;
57325;SDS011;43161;50.950;18.224;2024-03-08T08:42:45;37.30;;;18.00;;
57325;SDS011;43161;50.950;18.224;2024-03-08T08:45:11;38.20;;;18.20;;
57325;SDS011;43161;50.950;18.224;2024-03-08T08:47:37;37.00;;;18.20;;
57325;SDS011;43161;50.950;18.224;2024-03-08T08:50:03;35.90;;;19.60;;
57325;SDS011;43161;50.950;18.224;2024-03-08T08:52:30;43.40;;;21.80;;
57325;SDS011;43161;50.950;18.224;2024-03-08T08:54:57;42.70;;;21.80;;
57325;SDS011;43161;50.950;18.224;2024-03-08T08:57:23;40.30;;;20.10;;
57325;SDS011;43161;50.950;18.224;2024-03-08T08:59:48;41.60;;;22.20;;
57325;SDS011;43161;50.950;18.224;2024-03-08T09:02:14;36.80;;;19.80;;
57325;SDS011;43161;50.950;18.224;2024-03-08T09:04:42;39.10;;;21.80;;
57325;SDS011;43161;50.950;18.224;2024-03-08T09:07:09;37.80;;;19.30;;
57325;SDS011;43161;50.950;18.224;2024-03-08T09:09:34;37.30;;;18.80;;
57325;SDS011;43161;50.950;18.224;2024-03-08T09:12:00;40.50;;;20.60;;
57325;SDS011;43161;50.950;18.224;2024-03-08T09:14:26;41.00;;;20.90;;
57325;SDS011;43161;50.950;18.224;2024-03-08T09:16:52;41.50;;;21.10;;
57325;SDS011;43161;50.950;18.224;2024-03-08T09:19:17;45.80;;;24.50;;
57325;SDS011;43161;50.950;18.224;2024-03-08T09:21:44;39.80;;;19.00;;
57325;SDS011;43161;50.950;18.224;2024-03-08T09:24:11;39.70;;;20.10;;
57325;SDS011;43161;50.950;18.224;2024-03-08T09:26:37;36.90;;;20.50;;
57325;SDS011;43161;50.950;18.224;2024-03-08T09:29:03;35.50;;;17.80;;
57325;SDS011;43161;50.950;18.224;2024-03-08T09:31:32;38.60;;;20.30;;
57325;SDS011;43161;50.950;18.224;2024-03-08T09:33:58;34.60;;;18.00;;
57325;SDS011;43161;50.950;18.224;2024-03-08T09:36:23;38.90;;;23.00;;
57325;SDS011;43161;50.950;18.224;2024-03-08T09:38:50;37.80;;;21.00;;
57325;SDS011;43161;50.950;18.224;2024-03-08T09:41:16;38.40;;;19.60;;
57325;SDS011;43161;50.950;18.224;2024-03-08T09:43:42;35.80;;;18.40;;
57325;SDS011;43161;50.950;18.224;2024-03-08T09:46:08;37.40;;;22.10;;
57325;SDS011;43161;50.950;18.224;2024-03-08T09:48:35;36.00;;;19.70;;
57325;SDS011;43161;50.950;18.224;2024-03-08T09:51:01;35.30;;;21.00;;
57325;SDS011;43161;50.950;18.224;2024-03-08T09:53:28;37.80;;;21.00;;
57325;SDS011;43161;50.950;18.224;2024-03-08T09:55:54;34.50;;;20.90;;
57325;SDS011;43161;50.950;18.224;2024-03-08T09:58:20;34.40;;;17.00;;
57325;SDS011;43161;50.950;18.224;2024-03-08T10:01:01;36.20;;;20.00;;
57325;SDS011;43161;50.950;18.224;2024-03-08T10:03:32;32.50;;;17.70;;
57325;SDS011;43161;50.950;18.224;2024-03-08T10:05:58;34.20;;;19.20;;
57325;SDS011;43161;50.950;18.224;2024-03-08T10:08:27;36.10;;;19.90;;
57325;SDS011;43161;50.950;18.224;2024-03-08T10:10:54;33.60;;;16.40;;
57325;SDS011;43161;50.950;18.224;2024-03-08T10:13:24;33.10;;;18.90;;
57325;SDS011;43161;50.950;18.224;2024-03-08T10:15:52;36.60;;;17.20;;
57325;SDS011;43161;50.950;18.224;2024-03-08T10:18:18;39.00;;;17.10;;
57325;SDS011;43161;50.950;18.224;2024-03-08T10:20:44;33.80;;;18.40;;
57325;SDS011;43161;50.950;18.224;2024-03-08T10:23:10;33.00;;;17.00;;
57325;SDS011;43161;50.950;18.224;2024-03-08T10:25:36;32.50;;;18.20;;
57325;SDS011;43161;50.950;18.224;2024-03-08T10:28:04;34.30;;;19.80;;
57325;SDS011;43161;50.950;18.224;2024-03-08T10:30:31;33.80;;;17.60;;
57325;SDS011;43161;50.950;18.224;2024-03-08T10:32:57;32.00;;;18.20;;
57325;SDS011;43161;50.950;18.224;2024-03-08T10:35:24;32.50;;;17.50;;
57325;SDS011;43161;50.950;18.224;2024-03-08T10:37:51;34.40;;;17.70;;
57325;SDS011;43161;50.950;18.224;2024-03-08T10:40:33;32.00;;;16.30;;
57325;SDS011;43161;50.950;18.224;2024-03-08T10:43:01;34.70;;;17.70;;
57325;SDS011;43161;50.950;18.224;2024-03-08T10:45:30;37.10;;;19.10;;
57325;SDS011;43161;50.950;18.224;2024-03-08T10:51:07;35.60;;;19.30;;
57325;SDS011;43161;50.950;18.224;2024-03-08T10:53:33;34.40;;;19.50;;
57325;SDS011;43161;50.950;18.224;2024-03-08T10:55:59;32.80;;;16.40;;
57325;SDS011;43161;50.950;18.224;2024-03-08T10:58:26;34.30;;;18.10;;
57325;SDS011;43161;50.950;18.224;2024-03-08T11:00:52;40.70;;;19.00;;
57325;SDS011;43161;50.950;18.224;2024-03-08T11:06:07;33.20;;;18.70;;
57325;SDS011;43161;50.950;18.224;2024-03-08T11:08:37;32.00;;;16.30;;
57325;SDS011;43161;50.950;18.224;2024-03-08T11:11:04;34.40;;;17.90;;
57325;SDS011;43161;50.950;18.224;2024-03-08T11:13:39;33.00;;;17.30;;
57325;SDS011;43161;50.950;18.224;2024-03-08T11:16:09;32.70;;;16.40;;
57325;SDS011;43161;50.950;18.224;2024-03-08T11:18:36;30.80;;;15.70;;
57325;SDS011;43161;50.950;18.224;2024-03-08T11:21:07;30.10;;;15.80;;
57325;SDS011;43161;50.950;18.224;2024-03-08T11:23:37;30.00;;;16.40;;
57325;SDS011;43161;50.950;18.224;2024-03-08T11:28:49;30.90;;;16.80;;
57325;SDS011;43161;50.950;18.224;2024-03-08T11:31:24;28.80;;;16.80;;
57325;SDS011;43161;50.950;18.224;2024-03-08T11:36:22;29.00;;;14.80;;
57325;SDS011;43161;50.950;18.224;2024-03-08T11:38:49;31.50;;;16.50;;
57325;SDS011;43161;50.950;18.224;2024-03-08T11:41:24;29.70;;;17.60;;
57325;SDS011;43161;50.950;18.224;2024-03-08T11:44:01;29.30;;;17.40;;
57325;SDS011;43161;50.950;18.224;2024-03-08T11:46:31;27.40;;;17.20;;
57325;SDS011;43161;50.950;18.224;2024-03-08T11:48:57;30.20;;;16.00;;
57325;SDS011;43161;50.950;18.224;2024-03-08T11:51:22;28.10;;;15.80;;
57325;SDS011;43161;50.950;18.224;2024-03-08T11:53:51;30.00;;;15.30;;
57325;SDS011;43161;50.950;18.224;2024-03-08T11:56:17;28.10;;;14.70;;
57325;SDS011;43161;50.950;18.224;2024-03-08T11:58:52;29.00;;;15.10;;
57325;SDS011;43161;50.950;18.224;2024-03-08T12:01:19;28.40;;;14.80;;
57325;SDS011;43161;50.950;18.224;2024-03-08T12:03:45;29.60;;;15.70;;
57325;SDS011;43161;50.950;18.224;2024-03-08T12:06:18;27.30;;;13.90;;
57325;SDS011;43161;50.950;18.224;2024-03-08T12:08:45;30.50;;;16.20;;
57325;SDS011;43161;50.950;18.224;2024-03-08T12:11:14;29.00;;;17.20;;
57325;SDS011;43161;50.950;18.224;2024-03-08T12:13:41;25.40;;;14.10;;
57325;SDS011;43161;50.950;18.224;2024-03-08T12:16:06;29.40;;;17.00;;
57325;SDS011;43161;50.950;18.224;2024-03-08T12:18:34;28.50;;;15.20;;
57325;SDS011;43161;50.950;18.224;2024-03-08T12:21:07;27.60;;;15.20;;
57325;SDS011;43161;50.950;18.224;2024-03-08T12:23:35;25.30;;;14.70;;
57325;SDS011;43161;50.950;18.224;2024-03-08T12:28:48;29.00;;;15.60;;
57325;SDS011;43161;50.950;18.224;2024-03-08T12:31:15;27.70;;;15.90;;
57325;SDS011;43161;50.950;18.224;2024-03-08T12:33:51;25.90;;;13.50;;
57325;SDS011;43161;50.950;18.224;2024-03-08T12:36:21;25.10;;;12.70;;
57325;SDS011;43161;50.950;18.224;2024-03-08T12:38:47;26.20;;;14.30;;
57325;SDS011;43161;50.950;18.224;2024-03-08T12:41:16;27.60;;;14.20;;
57325;SDS011;43161;50.950;18.224;2024-03-08T12:43:45;26.20;;;14.50;;
57325;SDS011;43161;50.950;18.224;2024-03-08T12:46:18;28.90;;;16.20;;
57325;SDS011;43161;50.950;18.224;2024-03-08T12:48:51;30.50;;;16.40;;
57325;SDS011;43161;50.950;18.224;2024-03-08T12:51:19;26.50;;;14.50;;
57325;SDS011;43161;50.950;18.224;2024-03-08T12:53:45;26.40;;;14.00;;
57325;SDS011;43161;50.950;18.224;2024-03-08T12:56:33;27.50;;;14.00;;
57325;SDS011;43161;50.950;18.224;2024-03-08T12:59:01;24.10;;;14.00;;
57325;SDS011;43161;50.950;18.224;2024-03-08T13:01:28;24.20;;;12.70;;
57325;SDS011;43161;50.950;18.224;2024-03-08T13:03:53;25.70;;;13.50;;
57325;SDS011;43161;50.950;18.224;2024-03-08T13:06:21;23.40;;;13.00;;
57325;SDS011;43161;50.950;18.224;2024-03-08T13:08:50;24.90;;;13.00;;
57325;SDS011;43161;50.950;18.224;2024-03-08T13:11:19;26.80;;;14.40;;
57325;SDS011;43161;50.950;18.224;2024-03-08T13:13:45;24.30;;;14.10;;
57325;SDS011;43161;50.950;18.224;2024-03-08T13:16:11;26.00;;;15.70;;
57325;SDS011;43161;50.950;18.224;2024-03-08T13:18:40;23.40;;;12.80;;
57325;SDS011;43161;50.950;18.224;2024-03-08T13:21:10;25.20;;;13.50;;
57325;SDS011;43161;50.950;18.224;2024-03-08T13:23:38;25.40;;;13.50;;
57325;SDS011;43161;50.950;18.224;2024-03-08T13:26:08;23.40;;;12.30;;
57325;SDS011;43161;50.950;18.224;2024-03-08T13:28:35;23.70;;;11.60;;
57325;SDS011;43161;50.950;18.224;2024-03-08T13:31:04;22.70;;;14.00;;
57325;SDS011;43161;50.950;18.224;2024-03-08T13:33:32;25.10;;;12.90;;
57325;SDS011;43161;50.950;18.224;2024-03-08T13:36:03;23.00;;;11.50;;
57325;SDS011;43161;50.950;18.224;2024-03-08T13:38:32;23.90;;;12.30;;
57325;SDS011;43161;50.950;18.224;2024-03-08T13:40:58;22.70;;;12.50;;
57325;SDS011;43161;50.950;18.224;2024-03-08T13:43:24;21.20;;;10.80;;
57325;SDS011;43161;50.950;18.224;2024-03-08T13:45:50;22.00;;;11.90;;
57325;SDS011;43161;50.950;18.224;2024-03-08T13:48:16;25.20;;;10.90;;
57325;SDS011;43161;50.950;18.224;2024-03-08T13:50:41;24.60;;;12.50;;
57325;SDS011;43161;50.950;18.224;2024-03-08T13:53:07;22.10;;;11.40;;
57325;SDS011;43161;50.950;18.224;2024-03-08T13:55:35;23.70;;;13.30;;
57325;SDS011;43161;50.950;18.224;2024-03-08T13:58:01;24.50;;;13.50;;
57325;SDS011;43161;50.950;18.224;2024-03-08T14:00:27;27.80;;;13.20;;
57325;SDS011;43161;50.950;18.224;2024-03-08T14:02:58;27.30;;;13.40;;
57325;SDS011;43161;50.950;18.224;2024-03-08T14:05:24;28.30;;;14.60;;
57325;SDS011;43161;50.950;18.224;2024-03-08T14:07:50;26.30;;;13.40;;
57325;SDS011;43161;50.950;18.224;2024-03-08T14:10:16;30.70;;;15.70;;
57325;SDS011;43161;50.950;18.224;2024-03-08T14:12:45;26.60;;;14.50;;
57325;SDS011;43161;50.950;18.224;2024-03-08T14:15:13;26.30;;;14.00;;
57325;SDS011;43161;50.950;18.224;2024-03-08T14:17:39;27.50;;;13.50;;
57325;SDS011;43161;50.950;18.224;2024-03-08T14:20:05;25.40;;;12.30;;
57325;SDS011;43161;50.950;18.224;2024-03-08T14:22:32;30.30;;;12.50;;